sensor_id;sensor_type;location;lat;lon;timestamp;P1;durP1;ratioP1;P2;durP2;ratioP2
12861;SDS011;6499;66.348;14.134;2023-02-25T00:00:09;1.27;;;0.67;;
12861;SDS011;6499;66.348;14.134;2023-02-25T00:02:42;0.60;;;0.40;;
12861;SDS011;6499;66.348;14.134;2023-02-25T00:05:08;3.70;;;1.77;;
12861;SDS011;6499;66.348;14.134;2023-02-25T00:07:36;5.13;;;2.20;;
12861;SDS011;6499;66.348;14.134;2023-02-25T00:10:02;4.63;;;1.60;;
12861;SDS011;6499;66.348;14.134;2023-02-25T00:12:30;3.00;;;0.90;;
12861;SDS011;6499;66.348;14.134;2023-02-25T00:14:56;6.27;;;2.30;;
12861;SDS011;6499;66.348;14.134;2023-02-25T00:17:23;3.90;;;1.30;;
12861;SDS011;6499;66.348;14.134;2023-02-25T00:19:49;1.60;;;0.97;;
12861;SDS011;6499;66.348;14.134;2023-02-25T00:22:16;2.20;;;1.30;;
12861;SDS011;6499;66.348;14.134;2023-02-25T00:24:42;1.87;;;1.00;;
12861;SDS011;6499;66.348;14.134;2023-02-25T00:27:09;6.87;;;1.23;;
12861;SDS011;6499;66.348;14.134;2023-02-25T00:29:37;1.50;;;1.00;;
12861;SDS011;6499;66.348;14.134;2023-02-25T00:32:03;1.57;;;1.03;;
12861;SDS011;6499;66.348;14.134;2023-02-25T00:34:31;2.10;;;0.87;;
12861;SDS011;6499;66.348;14.134;2023-02-25T00:36:57;1.80;;;0.90;;
12861;SDS011;6499;66.348;14.134;2023-02-25T00:39:24;1.30;;;0.80;;
12861;SDS011;6499;66.348;14.134;2023-02-25T00:42:05;2.33;;;0.80;;
12861;SDS011;6499;66.348;14.134;2023-02-25T00:44:32;0.50;;;0.50;;
12861;SDS011;6499;66.348;14.134;2023-02-25T00:47:00;1.83;;;0.60;;
12861;SDS011;6499;66.348;14.134;2023-02-25T00:49:26;1.60;;;0.70;;
12861;SDS011;6499;66.348;14.134;2023-02-25T00:51:53;1.93;;;0.60;;
12861;SDS011;6499;66.348;14.134;2023-02-25T00:54:20;0.63;;;0.37;;
12861;SDS011;6499;66.348;14.134;2023-02-25T00:56:46;1.33;;;0.60;;
12861;SDS011;6499;66.348;14.134;2023-02-25T00:59:13;2.33;;;0.80;;
12861;SDS011;6499;66.348;14.134;2023-02-25T01:01:39;0.97;;;0.50;;
12861;SDS011;6499;66.348;14.134;2023-02-25T01:04:07;1.03;;;0.57;;
12861;SDS011;6499;66.348;14.134;2023-02-25T01:06:35;1.63;;;0.63;;
12861;SDS011;6499;66.348;14.134;2023-02-25T01:09:06;2.13;;;0.63;;
12861;SDS011;6499;66.348;14.134;2023-02-25T01:11:38;1.10;;;0.40;;
12861;SDS011;6499;66.348;14.134;2023-02-25T01:14:05;2.27;;;0.60;;
12861;SDS011;6499;66.348;14.134;2023-02-25T01:16:32;1.40;;;0.40;;
12861;SDS011;6499;66.348;14.134;2023-02-25T01:19:00;2.33;;;0.60;;
12861;SDS011;6499;66.348;14.134;2023-02-25T01:21:29;1.67;;;0.77;;
12861;SDS011;6499;66.348;14.134;2023-02-25T01:23:56;0.60;;;0.40;;
12861;SDS011;6499;66.348;14.134;2023-02-25T01:26:24;1.93;;;0.50;;
12861;SDS011;6499;66.348;14.134;2023-02-25T01:28:50;1.20;;;0.50;;
12861;SDS011;6499;66.348;14.134;2023-02-25T01:31:17;1.47;;;0.60;;
12861;SDS011;6499;66.348;14.134;2023-02-25T01:33:48;0.97;;;0.30;;
12861;SDS011;6499;66.348;14.134;2023-02-25T01:36:15;0.87;;;0.57;;
12861;SDS011;6499;66.348;14.134;2023-02-25T01:38:43;0.63;;;0.50;;
12861;SDS011;6499;66.348;14.134;2023-02-25T01:41:09;2.13;;;0.60;;
12861;SDS011;6499;66.348;14.134;2023-02-25T01:43:36;1.80;;;0.60;;
12861;SDS011;6499;66.348;14.134;2023-02-25T01:46:02;1.13;;;0.40;;
12861;SDS011;6499;66.348;14.134;2023-02-25T01:48:29;0.87;;;0.50;;
12861;SDS011;6499;66.348;14.134;2023-02-25T01:50:57;1.50;;;0.60;;
12861;SDS011;6499;66.348;14.134;2023-02-25T01:53:27;0.60;;;0.40;;
12861;SDS011;6499;66.348;14.134;2023-02-25T01:55:56;1.33;;;0.50;;
12861;SDS011;6499;66.348;14.134;2023-02-25T01:58:23;2.23;;;0.60;;
12861;SDS011;6499;66.348;14.134;2023-02-25T02:00:50;2.77;;;0.60;;
12861;SDS011;6499;66.348;14.134;2023-02-25T02:03:19;1.73;;;0.47;;
12861;SDS011;6499;66.348;14.134;2023-02-25T02:05:49;1.43;;;0.47;;
12861;SDS011;6499;66.348;14.134;2023-02-25T02:08:18;1.47;;;0.60;;
12861;SDS011;6499;66.348;14.134;2023-02-25T02:10:44;0.50;;;0.40;;
12861;SDS011;6499;66.348;14.134;2023-02-25T02:13:12;1.27;;;0.60;;
12861;SDS011;6499;66.348;14.134;2023-02-25T02:15:39;0.70;;;0.43;;
12861;SDS011;6499;66.348;14.134;2023-02-25T02:18:07;1.33;;;0.47;;
12861;SDS011;6499;66.348;14.134;2023-02-25T02:20:38;1.43;;;0.50;;
12861;SDS011;6499;66.348;14.134;2023-02-25T02:23:16;1.23;;;0.40;;
12861;SDS011;6499;66.348;14.134;2023-02-25T02:26:00;1.40;;;0.53;;
12861;SDS011;6499;66.348;14.134;2023-02-25T02:28:40;2.17;;;0.40;;
12861;SDS011;6499;66.348;14.134;2023-02-25T02:31:23;1.37;;;1.00;;
12861;SDS011;6499;66.348;14.134;2023-02-25T02:33:56;1.80;;;0.50;;
12861;SDS011;6499;66.348;14.134;2023-02-25T02:36:28;0.70;;;0.40;;
12861;SDS011;6499;66.348;14.134;2023-02-25T02:38:58;1.43;;;0.40;;
12861;SDS011;6499;66.348;14.134;2023-02-25T02:41:27;1.13;;;0.70;;
12861;SDS011;6499;66.348;14.134;2023-02-25T02:44:00;1.23;;;0.40;;
12861;SDS011;6499;66.348;14.134;2023-02-25T02:46:33;1.60;;;0.50;;
12861;SDS011;6499;66.348;14.134;2023-02-25T02:49:02;1.50;;;0.40;;
12861;SDS011;6499;66.348;14.134;2023-02-25T02:51:32;1.00;;;0.30;;
12861;SDS011;6499;66.348;14.134;2023-02-25T02:54:00;4.00;;;0.60;;
12861;SDS011;6499;66.348;14.134;2023-02-25T02:56:27;0.77;;;0.50;;
12861;SDS011;6499;66.348;14.134;2023-02-25T02:58:56;1.03;;;0.60;;
12861;SDS011;6499;66.348;14.134;2023-02-25T03:01:24;2.17;;;0.43;;
12861;SDS011;6499;66.348;14.134;2023-02-25T03:03:54;3.83;;;0.80;;
12861;SDS011;6499;66.348;14.134;2023-02-25T03:06:24;1.87;;;0.50;;
12861;SDS011;6499;66.348;14.134;2023-02-25T03:08:52;1.77;;;0.67;;
12861;SDS011;6499;66.348;14.134;2023-02-25T03:11:23;2.33;;;0.70;;
12861;SDS011;6499;66.348;14.134;2023-02-25T03:13:50;2.33;;;0.50;;
12861;SDS011;6499;66.348;14.134;2023-02-25T03:16:19;1.37;;;0.40;;
12861;SDS011;6499;66.348;14.134;2023-02-25T03:18:48;2.17;;;0.60;;
12861;SDS011;6499;66.348;14.134;2023-02-25T03:21:18;2.07;;;0.50;;
12861;SDS011;6499;66.348;14.134;2023-02-25T03:23:46;2.87;;;0.40;;
12861;SDS011;6499;66.348;14.134;2023-02-25T03:26:14;1.90;;;0.70;;
12861;SDS011;6499;66.348;14.134;2023-02-25T03:28:43;1.43;;;0.50;;
12861;SDS011;6499;66.348;14.134;2023-02-25T03:31:12;1.73;;;0.40;;
12861;SDS011;6499;66.348;14.134;2023-02-25T03:33:40;2.67;;;0.70;;
12861;SDS011;6499;66.348;14.134;2023-02-25T03:36:12;2.10;;;0.70;;
12861;SDS011;6499;66.348;14.134;2023-02-25T03:38:44;4.10;;;0.90;;
12861;SDS011;6499;66.348;14.134;2023-02-25T03:41:11;2.30;;;1.33;;
12861;SDS011;6499;66.348;14.134;2023-02-25T03:43:40;1.90;;;0.50;;
12861;SDS011;6499;66.348;14.134;2023-02-25T03:46:08;1.80;;;0.60;;
12861;SDS011;6499;66.348;14.134;2023-02-25T03:48:34;0.30;;;0.30;;
12861;SDS011;6499;66.348;14.134;2023-02-25T03:51:03;1.27;;;0.53;;
12861;SDS011;6499;66.348;14.134;2023-02-25T03:53:30;1.17;;;0.60;;
12861;SDS011;6499;66.348;14.134;2023-02-25T03:55:59;1.30;;;0.47;;
12861;SDS011;6499;66.348;14.134;2023-02-25T03:58:29;3.30;;;0.50;;
12861;SDS011;6499;66.348;14.134;2023-02-25T04:00:56;2.07;;;0.40;;
12861;SDS011;6499;66.348;14.134;2023-02-25T04:03:26;1.70;;;0.60;;
12861;SDS011;6499;66.348;14.134;2023-02-25T04:05:53;1.83;;;0.50;;
12861;SDS011;6499;66.348;14.134;2023-02-25T04:08:19;2.73;;;0.60;;
12861;SDS011;6499;66.348;14.134;2023-02-25T04:10:46;2.17;;;0.87;;
12861;SDS011;6499;66.348;14.134;2023-02-25T04:13:14;1.33;;;0.60;;
12861;SDS011;6499;66.348;14.134;2023-02-25T04:15:41;2.13;;;0.60;;
12861;SDS011;6499;66.348;14.134;2023-02-25T04:18:07;1.10;;;0.57;;
12861;SDS011;6499;66.348;14.134;2023-02-25T04:20:34;1.73;;;0.67;;
12861;SDS011;6499;66.348;14.134;2023-02-25T04:23:00;2.60;;;0.50;;
12861;SDS011;6499;66.348;14.134;2023-02-25T04:25:27;2.97;;;0.60;;
12861;SDS011;6499;66.348;14.134;2023-02-25T04:27:53;1.20;;;0.50;;
12861;SDS011;6499;66.348;14.134;2023-02-25T04:30:22;0.83;;;0.50;;
12861;SDS011;6499;66.348;14.134;2023-02-25T04:32:52;3.33;;;0.60;;
12861;SDS011;6499;66.348;14.134;2023-02-25T04:35:19;4.50;;;0.70;;
12861;SDS011;6499;66.348;14.134;2023-02-25T04:37:45;0.70;;;0.40;;
12861;SDS011;6499;66.348;14.134;2023-02-25T04:40:13;2.40;;;0.67;;
12861;SDS011;6499;66.348;14.134;2023-02-25T04:42:40;0.83;;;0.50;;
12861;SDS011;6499;66.348;14.134;2023-02-25T04:45:07;1.60;;;0.70;;
12861;SDS011;6499;66.348;14.134;2023-02-25T04:47:36;0.90;;;0.40;;
12861;SDS011;6499;66.348;14.134;2023-02-25T04:50:02;1.90;;;0.50;;
12861;SDS011;6499;66.348;14.134;2023-02-25T04:52:29;1.67;;;0.70;;
12861;SDS011;6499;66.348;14.134;2023-02-25T04:54:55;1.37;;;0.50;;
12861;SDS011;6499;66.348;14.134;2023-02-25T04:57:22;1.90;;;0.83;;
12861;SDS011;6499;66.348;14.134;2023-02-25T04:59:48;1.23;;;0.60;;
12861;SDS011;6499;66.348;14.134;2023-02-25T05:02:15;2.03;;;0.70;;
12861;SDS011;6499;66.348;14.134;2023-02-25T05:04:43;1.33;;;0.43;;
12861;SDS011;6499;66.348;14.134;2023-02-25T05:07:09;2.00;;;0.60;;
12861;SDS011;6499;66.348;14.134;2023-02-25T05:09:36;1.53;;;0.50;;
12861;SDS011;6499;66.348;14.134;2023-02-25T05:12:02;1.87;;;0.57;;
12861;SDS011;6499;66.348;14.134;2023-02-25T05:14:29;0.60;;;0.40;;
12861;SDS011;6499;66.348;14.134;2023-02-25T05:16:55;1.40;;;0.57;;
12861;SDS011;6499;66.348;14.134;2023-02-25T05:19:22;2.17;;;0.70;;
12861;SDS011;6499;66.348;14.134;2023-02-25T05:21:51;2.20;;;1.20;;
12861;SDS011;6499;66.348;14.134;2023-02-25T05:24:17;1.40;;;0.70;;
12861;SDS011;6499;66.348;14.134;2023-02-25T05:26:47;1.63;;;0.70;;
12861;SDS011;6499;66.348;14.134;2023-02-25T05:29:13;0.97;;;0.43;;
12861;SDS011;6499;66.348;14.134;2023-02-25T05:31:41;1.33;;;0.57;;
12861;SDS011;6499;66.348;14.134;2023-02-25T05:34:07;1.17;;;0.60;;
12861;SDS011;6499;66.348;14.134;2023-02-25T05:36:34;1.07;;;0.40;;
12861;SDS011;6499;66.348;14.134;2023-02-25T05:39:02;3.07;;;0.70;;
12861;SDS011;6499;66.348;14.134;2023-02-25T05:41:28;1.00;;;0.40;;
12861;SDS011;6499;66.348;14.134;2023-02-25T05:43:55;0.80;;;0.40;;
12861;SDS011;6499;66.348;14.134;2023-02-25T05:46:22;1.43;;;0.60;;
12861;SDS011;6499;66.348;14.134;2023-02-25T05:48:49;2.37;;;0.77;;
12861;SDS011;6499;66.348;14.134;2023-02-25T05:51:16;4.43;;;2.30;;
12861;SDS011;6499;66.348;14.134;2023-02-25T05:53:43;5.33;;;2.60;;
12861;SDS011;6499;66.348;14.134;2023-02-25T05:56:13;1.77;;;1.27;;
12861;SDS011;6499;66.348;14.134;2023-02-25T05:58:40;1.87;;;0.60;;
12861;SDS011;6499;66.348;14.134;2023-02-25T06:01:07;1.20;;;0.67;;
12861;SDS011;6499;66.348;14.134;2023-02-25T06:03:35;2.40;;;0.80;;
12861;SDS011;6499;66.348;14.134;2023-02-25T06:06:02;0.60;;;0.40;;
12861;SDS011;6499;66.348;14.134;2023-02-25T06:08:28;1.47;;;0.70;;
12861;SDS011;6499;66.348;14.134;2023-02-25T06:10:55;1.73;;;0.80;;
12861;SDS011;6499;66.348;14.134;2023-02-25T06:13:23;4.30;;;2.70;;
12861;SDS011;6499;66.348;14.134;2023-02-25T06:15:49;6.93;;;4.40;;
12861;SDS011;6499;66.348;14.134;2023-02-25T06:18:16;2.30;;;1.43;;
12861;SDS011;6499;66.348;14.134;2023-02-25T06:20:42;3.27;;;2.03;;
12861;SDS011;6499;66.348;14.134;2023-02-25T06:23:09;2.43;;;0.97;;
12861;SDS011;6499;66.348;14.134;2023-02-25T06:25:35;1.63;;;0.60;;
12861;SDS011;6499;66.348;14.134;2023-02-25T06:28:02;1.53;;;0.70;;
12861;SDS011;6499;66.348;14.134;2023-02-25T06:30:30;2.07;;;0.90;;
12861;SDS011;6499;66.348;14.134;2023-02-25T06:32:56;0.90;;;0.70;;
12861;SDS011;6499;66.348;14.134;2023-02-25T06:35:23;1.10;;;0.80;;
12861;SDS011;6499;66.348;14.134;2023-02-25T06:37:49;0.67;;;0.50;;
12861;SDS011;6499;66.348;14.134;2023-02-25T06:40:19;2.13;;;0.80;;
12861;SDS011;6499;66.348;14.134;2023-02-25T06:42:46;1.60;;;0.50;;
12861;SDS011;6499;66.348;14.134;2023-02-25T06:45:12;1.27;;;1.17;;
12861;SDS011;6499;66.348;14.134;2023-02-25T06:47:41;1.40;;;0.93;;
12861;SDS011;6499;66.348;14.134;2023-02-25T06:50:11;1.83;;;1.17;;
12861;SDS011;6499;66.348;14.134;2023-02-25T06:52:38;2.63;;;1.53;;
12861;SDS011;6499;66.348;14.134;2023-02-25T06:55:05;1.53;;;1.30;;
12861;SDS011;6499;66.348;14.134;2023-02-25T06:57:35;3.27;;;1.10;;
12861;SDS011;6499;66.348;14.134;2023-02-25T07:00:02;2.20;;;1.00;;
12861;SDS011;6499;66.348;14.134;2023-02-25T07:02:29;1.53;;;0.80;;
12861;SDS011;6499;66.348;14.134;2023-02-25T07:04:57;1.30;;;1.00;;
12861;SDS011;6499;66.348;14.134;2023-02-25T07:07:25;2.23;;;0.93;;
12861;SDS011;6499;66.348;14.134;2023-02-25T07:09:52;2.00;;;1.40;;
12861;SDS011;6499;66.348;14.134;2023-02-25T07:12:18;3.67;;;2.13;;
12861;SDS011;6499;66.348;14.134;2023-02-25T07:14:45;1.03;;;0.90;;
12861;SDS011;6499;66.348;14.134;2023-02-25T07:17:11;1.63;;;0.70;;
12861;SDS011;6499;66.348;14.134;2023-02-25T07:19:38;1.13;;;0.70;;
12861;SDS011;6499;66.348;14.134;2023-02-25T07:22:06;1.43;;;0.90;;
12861;SDS011;6499;66.348;14.134;2023-02-25T07:24:34;1.63;;;1.10;;
12861;SDS011;6499;66.348;14.134;2023-02-25T07:27:00;1.73;;;1.00;;
12861;SDS011;6499;66.348;14.134;2023-02-25T07:29:26;1.33;;;0.90;;
12861;SDS011;6499;66.348;14.134;2023-02-25T07:31:53;1.53;;;0.90;;
12861;SDS011;6499;66.348;14.134;2023-02-25T07:34:19;1.20;;;0.83;;
12861;SDS011;6499;66.348;14.134;2023-02-25T07:36:46;1.10;;;0.90;;
12861;SDS011;6499;66.348;14.134;2023-02-25T07:39:14;1.93;;;1.20;;
12861;SDS011;6499;66.348;14.134;2023-02-25T07:41:40;4.00;;;2.20;;
12861;SDS011;6499;66.348;14.134;2023-02-25T07:44:07;3.57;;;1.40;;
12861;SDS011;6499;66.348;14.134;2023-02-25T07:46:33;2.67;;;1.40;;
12861;SDS011;6499;66.348;14.134;2023-02-25T07:49:00;6.17;;;3.83;;
12861;SDS011;6499;66.348;14.134;2023-02-25T07:51:27;2.80;;;2.20;;
12861;SDS011;6499;66.348;14.134;2023-02-25T07:53:54;4.33;;;1.90;;
12861;SDS011;6499;66.348;14.134;2023-02-25T07:56:24;2.63;;;1.90;;
12861;SDS011;6499;66.348;14.134;2023-02-25T07:58:50;6.70;;;3.20;;
12861;SDS011;6499;66.348;14.134;2023-02-25T08:01:18;9.07;;;4.30;;
12861;SDS011;6499;66.348;14.134;2023-02-25T08:03:47;5.03;;;3.00;;
12861;SDS011;6499;66.348;14.134;2023-02-25T08:06:13;5.10;;;3.67;;
12861;SDS011;6499;66.348;14.134;2023-02-25T08:08:40;8.53;;;5.07;;
12861;SDS011;6499;66.348;14.134;2023-02-25T08:11:06;11.47;;;6.67;;
12861;SDS011;6499;66.348;14.134;2023-02-25T08:13:35;9.67;;;6.40;;
12861;SDS011;6499;66.348;14.134;2023-02-25T08:16:02;14.57;;;7.17;;
12861;SDS011;6499;66.348;14.134;2023-02-25T08:18:29;18.23;;;7.70;;
12861;SDS011;6499;66.348;14.134;2023-02-25T08:20:55;18.10;;;8.20;;
12861;SDS011;6499;66.348;14.134;2023-02-25T08:23:22;9.70;;;4.80;;
12861;SDS011;6499;66.348;14.134;2023-02-25T08:25:51;6.97;;;3.43;;
12861;SDS011;6499;66.348;14.134;2023-02-25T08:28:18;8.80;;;4.43;;
12861;SDS011;6499;66.348;14.134;2023-02-25T08:30:46;8.63;;;3.60;;
12861;SDS011;6499;66.348;14.134;2023-02-25T08:33:13;3.77;;;2.37;;
12861;SDS011;6499;66.348;14.134;2023-02-25T08:35:39;4.37;;;2.40;;
12861;SDS011;6499;66.348;14.134;2023-02-25T08:38:06;2.93;;;2.00;;
12861;SDS011;6499;66.348;14.134;2023-02-25T08:40:33;3.00;;;1.53;;
12861;SDS011;6499;66.348;14.134;2023-02-25T08:42:59;2.00;;;1.00;;
12861;SDS011;6499;66.348;14.134;2023-02-25T08:45:26;1.53;;;1.10;;
12861;SDS011;6499;66.348;14.134;2023-02-25T08:47:55;2.83;;;1.90;;
12861;SDS011;6499;66.348;14.134;2023-02-25T08:50:24;2.67;;;1.47;;
12861;SDS011;6499;66.348;14.134;2023-02-25T08:52:51;5.73;;;4.10;;
12861;SDS011;6499;66.348;14.134;2023-02-25T08:55:17;4.27;;;3.10;;
12861;SDS011;6499;66.348;14.134;2023-02-25T08:57:44;5.50;;;3.57;;
12861;SDS011;6499;66.348;14.134;2023-02-25T09:00:11;4.13;;;3.57;;
12861;SDS011;6499;66.348;14.134;2023-02-25T09:02:39;5.57;;;3.80;;
12861;SDS011;6499;66.348;14.134;2023-02-25T09:05:07;7.37;;;4.30;;
12861;SDS011;6499;66.348;14.134;2023-02-25T09:07:35;5.40;;;3.37;;
12861;SDS011;6499;66.348;14.134;2023-02-25T09:10:02;28.77;;;15.07;;
12861;SDS011;6499;66.348;14.134;2023-02-25T09:12:30;12.63;;;8.17;;
12861;SDS011;6499;66.348;14.134;2023-02-25T09:14:57;14.87;;;7.27;;
12861;SDS011;6499;66.348;14.134;2023-02-25T09:17:23;8.50;;;5.10;;
12861;SDS011;6499;66.348;14.134;2023-02-25T09:19:50;5.70;;;2.80;;
12861;SDS011;6499;66.348;14.134;2023-02-25T09:22:17;5.17;;;3.10;;
12861;SDS011;6499;66.348;14.134;2023-02-25T09:24:44;5.80;;;4.30;;
12861;SDS011;6499;66.348;14.134;2023-02-25T09:27:11;14.73;;;8.17;;
12861;SDS011;6499;66.348;14.134;2023-02-25T09:29:38;9.20;;;6.23;;
12861;SDS011;6499;66.348;14.134;2023-02-25T09:32:05;7.00;;;4.63;;
12861;SDS011;6499;66.348;14.134;2023-02-25T09:34:34;6.97;;;4.67;;
12861;SDS011;6499;66.348;14.134;2023-02-25T09:37:02;6.17;;;3.60;;
12861;SDS011;6499;66.348;14.134;2023-02-25T09:39:30;5.70;;;3.80;;
12861;SDS011;6499;66.348;14.134;2023-02-25T09:41:56;6.40;;;3.83;;
12861;SDS011;6499;66.348;14.134;2023-02-25T09:44:28;6.03;;;2.90;;
12861;SDS011;6499;66.348;14.134;2023-02-25T09:46:55;3.53;;;2.33;;
12861;SDS011;6499;66.348;14.134;2023-02-25T09:49:24;2.73;;;1.43;;
12861;SDS011;6499;66.348;14.134;2023-02-25T09:51:52;24.73;;;10.73;;
12861;SDS011;6499;66.348;14.134;2023-02-25T09:54:21;7.40;;;2.83;;
12861;SDS011;6499;66.348;14.134;2023-02-25T09:56:50;17.87;;;9.47;;
12861;SDS011;6499;66.348;14.134;2023-02-25T09:59:18;6.87;;;3.73;;
12861;SDS011;6499;66.348;14.134;2023-02-25T10:01:47;4.07;;;1.40;;
12861;SDS011;6499;66.348;14.134;2023-02-25T10:04:15;5.40;;;1.67;;
12861;SDS011;6499;66.348;14.134;2023-02-25T10:06:47;2.70;;;1.17;;
12861;SDS011;6499;66.348;14.134;2023-02-25T10:09:17;54.63;;;20.87;;
12861;SDS011;6499;66.348;14.134;2023-02-25T10:11:50;18.57;;;7.13;;
12861;SDS011;6499;66.348;14.134;2023-02-25T10:14:29;25.60;;;9.20;;
12861;SDS011;6499;66.348;14.134;2023-02-25T10:17:01;12.37;;;4.60;;
12861;SDS011;6499;66.348;14.134;2023-02-25T10:19:34;5.33;;;1.80;;
12861;SDS011;6499;66.348;14.134;2023-02-25T10:24:44;3.87;;;1.30;;
12861;SDS011;6499;66.348;14.134;2023-02-25T10:27:15;2.20;;;0.80;;
12861;SDS011;6499;66.348;14.134;2023-02-25T10:29:45;1.33;;;0.77;;
12861;SDS011;6499;66.348;14.134;2023-02-25T10:32:17;5.27;;;1.90;;
12861;SDS011;6499;66.348;14.134;2023-02-25T10:34:44;4.77;;;1.90;;
12861;SDS011;6499;66.348;14.134;2023-02-25T10:37:16;2.80;;;1.20;;
12861;SDS011;6499;66.348;14.134;2023-02-25T10:39:44;2.87;;;1.20;;
12861;SDS011;6499;66.348;14.134;2023-02-25T10:42:12;1.83;;;1.00;;
12861;SDS011;6499;66.348;14.134;2023-02-25T10:44:40;2.50;;;0.80;;
12861;SDS011;6499;66.348;14.134;2023-02-25T10:47:08;2.70;;;0.97;;
12861;SDS011;6499;66.348;14.134;2023-02-25T10:49:36;3.27;;;1.00;;
12861;SDS011;6499;66.348;14.134;2023-02-25T10:52:04;1.57;;;0.80;;
12861;SDS011;6499;66.348;14.134;2023-02-25T10:54:31;4.83;;;2.20;;
12861;SDS011;6499;66.348;14.134;2023-02-25T10:56:59;11.27;;;4.87;;
12861;SDS011;6499;66.348;14.134;2023-02-25T10:59:27;7.10;;;3.00;;
12861;SDS011;6499;66.348;14.134;2023-02-25T11:01:55;4.20;;;1.73;;
12861;SDS011;6499;66.348;14.134;2023-02-25T11:04:24;2.67;;;1.60;;
12861;SDS011;6499;66.348;14.134;2023-02-25T11:06:53;2.90;;;1.10;;
12861;SDS011;6499;66.348;14.134;2023-02-25T11:09:27;4.73;;;1.80;;
12861;SDS011;6499;66.348;14.134;2023-02-25T11:11:55;1.87;;;1.13;;
12861;SDS011;6499;66.348;14.134;2023-02-25T11:14:25;3.63;;;1.00;;
12861;SDS011;6499;66.348;14.134;2023-02-25T11:16:52;0.93;;;0.60;;
12861;SDS011;6499;66.348;14.134;2023-02-25T11:19:28;3.17;;;0.83;;
12861;SDS011;6499;66.348;14.134;2023-02-25T11:21:55;2.17;;;0.83;;
12861;SDS011;6499;66.348;14.134;2023-02-25T11:24:28;1.30;;;0.63;;
12861;SDS011;6499;66.348;14.134;2023-02-25T11:26:55;2.93;;;0.83;;
12861;SDS011;6499;66.348;14.134;2023-02-25T11:29:23;2.37;;;0.80;;
12861;SDS011;6499;66.348;14.134;2023-02-25T11:31:52;3.07;;;0.90;;
12861;SDS011;6499;66.348;14.134;2023-02-25T11:34:20;2.93;;;1.00;;
12861;SDS011;6499;66.348;14.134;2023-02-25T11:36:48;1.80;;;0.70;;
12861;SDS011;6499;66.348;14.134;2023-02-25T11:39:16;1.93;;;0.70;;
12861;SDS011;6499;66.348;14.134;2023-02-25T11:41:45;2.27;;;0.80;;
12861;SDS011;6499;66.348;14.134;2023-02-25T11:44:17;2.23;;;0.80;;
12861;SDS011;6499;66.348;14.134;2023-02-25T11:46:45;4.43;;;1.10;;
12861;SDS011;6499;66.348;14.134;2023-02-25T11:49:15;1.67;;;0.83;;
12861;SDS011;6499;66.348;14.134;2023-02-25T11:51:44;2.57;;;0.90;;
12861;SDS011;6499;66.348;14.134;2023-02-25T11:54:23;4.63;;;1.43;;
12861;SDS011;6499;66.348;14.134;2023-02-25T11:56:50;2.17;;;0.80;;
12861;SDS011;6499;66.348;14.134;2023-02-25T11:59:30;2.20;;;1.27;;
12861;SDS011;6499;66.348;14.134;2023-02-25T12:04:44;2.37;;;1.00;;
12861;SDS011;6499;66.348;14.134;2023-02-25T12:07:27;2.30;;;0.60;;
12861;SDS011;6499;66.348;14.134;2023-02-25T12:15:56;2.60;;;0.90;;
12861;SDS011;6499;66.348;14.134;2023-02-25T12:18:43;1.50;;;0.60;;
12861;SDS011;6499;66.348;14.134;2023-02-25T12:26:56;1.87;;;0.70;;
12861;SDS011;6499;66.348;14.134;2023-02-25T12:29:43;2.40;;;0.90;;
12861;SDS011;6499;66.348;14.134;2023-02-25T12:37:55;1.20;;;0.50;;
12861;SDS011;6499;66.348;14.134;2023-02-25T12:40:30;1.10;;;0.70;;
12861;SDS011;6499;66.348;14.134;2023-02-25T12:43:05;1.90;;;0.80;;
12861;SDS011;6499;66.348;14.134;2023-02-25T12:45:45;1.80;;;0.70;;
12861;SDS011;6499;66.348;14.134;2023-02-25T12:51:15;2.67;;;0.70;;
12861;SDS011;6499;66.348;14.134;2023-02-25T12:53:49;2.90;;;1.30;;
12861;SDS011;6499;66.348;14.134;2023-02-25T12:59:10;4.33;;;1.13;;
12861;SDS011;6499;66.348;14.134;2023-02-25T13:01:41;2.13;;;0.80;;
12861;SDS011;6499;66.348;14.134;2023-02-25T13:04:29;1.20;;;0.60;;
12861;SDS011;6499;66.348;14.134;2023-02-25T13:07:22;4.50;;;0.70;;
12861;SDS011;6499;66.348;14.134;2023-02-25T13:10:01;2.63;;;0.80;;
12861;SDS011;6499;66.348;14.134;2023-02-25T13:15:15;2.60;;;0.73;;
12861;SDS011;6499;66.348;14.134;2023-02-25T13:20:49;3.03;;;0.80;;
12861;SDS011;6499;66.348;14.134;2023-02-25T13:23:24;1.50;;;0.70;;
12861;SDS011;6499;66.348;14.134;2023-02-25T13:28:46;3.13;;;0.80;;
12861;SDS011;6499;66.348;14.134;2023-02-25T13:31:14;3.63;;;1.00;;
12861;SDS011;6499;66.348;14.134;2023-02-25T13:33:54;1.20;;;0.70;;
12861;SDS011;6499;66.348;14.134;2023-02-25T13:36:29;4.73;;;0.80;;
12861;SDS011;6499;66.348;14.134;2023-02-25T13:39:10;2.10;;;0.90;;
12861;SDS011;6499;66.348;14.134;2023-02-25T13:41:46;3.23;;;1.27;;
12861;SDS011;6499;66.348;14.134;2023-02-25T13:44:20;0.90;;;0.60;;
12861;SDS011;6499;66.348;14.134;2023-02-25T13:49:47;1.50;;;0.77;;
12861;SDS011;6499;66.348;14.134;2023-02-25T13:55:22;4.40;;;2.00;;
12861;SDS011;6499;66.348;14.134;2023-02-25T13:57:53;4.90;;;2.70;;
12861;SDS011;6499;66.348;14.134;2023-02-25T14:03:16;3.13;;;0.90;;
12861;SDS011;6499;66.348;14.134;2023-02-25T14:05:57;2.27;;;0.87;;
12861;SDS011;6499;66.348;14.134;2023-02-25T14:08:32;2.77;;;0.97;;
12861;SDS011;6499;66.348;14.134;2023-02-25T14:11:07;1.97;;;1.00;;
12861;SDS011;6499;66.348;14.134;2023-02-25T14:13:43;3.77;;;0.90;;
12861;SDS011;6499;66.348;14.134;2023-02-25T14:16:14;2.40;;;0.77;;
12861;SDS011;6499;66.348;14.134;2023-02-25T14:18:46;2.53;;;0.80;;
12861;SDS011;6499;66.348;14.134;2023-02-25T14:21:34;2.27;;;0.90;;
12861;SDS011;6499;66.348;14.134;2023-02-25T14:24:03;1.67;;;0.80;;
12861;SDS011;6499;66.348;14.134;2023-02-25T14:26:35;1.87;;;0.60;;
12861;SDS011;6499;66.348;14.134;2023-02-25T14:29:06;3.10;;;1.20;;
12861;SDS011;6499;66.348;14.134;2023-02-25T14:31:37;1.87;;;0.80;;
12861;SDS011;6499;66.348;14.134;2023-02-25T14:34:12;1.90;;;0.80;;
12861;SDS011;6499;66.348;14.134;2023-02-25T14:36:47;1.57;;;0.70;;
12861;SDS011;6499;66.348;14.134;2023-02-25T14:39:19;2.83;;;1.27;;
12861;SDS011;6499;66.348;14.134;2023-02-25T14:41:51;1.50;;;0.90;;
12861;SDS011;6499;66.348;14.134;2023-02-25T14:44:24;3.40;;;1.00;;
12861;SDS011;6499;66.348;14.134;2023-02-25T14:46:53;2.93;;;0.70;;
12861;SDS011;6499;66.348;14.134;2023-02-25T14:49:24;3.03;;;0.83;;
12861;SDS011;6499;66.348;14.134;2023-02-25T14:52:04;1.53;;;0.70;;
12861;SDS011;6499;66.348;14.134;2023-02-25T14:54:37;2.07;;;0.63;;
12861;SDS011;6499;66.348;14.134;2023-02-25T14:57:14;3.23;;;0.77;;
12861;SDS011;6499;66.348;14.134;2023-02-25T14:59:57;2.67;;;0.70;;
12861;SDS011;6499;66.348;14.134;2023-02-25T15:02:27;3.00;;;0.80;;
12861;SDS011;6499;66.348;14.134;2023-02-25T15:05:02;2.67;;;0.80;;
12861;SDS011;6499;66.348;14.134;2023-02-25T15:07:38;2.47;;;0.73;;
12861;SDS011;6499;66.348;14.134;2023-02-25T15:10:16;1.87;;;0.70;;
12861;SDS011;6499;66.348;14.134;2023-02-25T15:15:37;2.60;;;0.80;;
12861;SDS011;6499;66.348;14.134;2023-02-25T15:18:25;1.00;;;0.67;;
12861;SDS011;6499;66.348;14.134;2023-02-25T15:20:55;1.60;;;0.60;;
12861;SDS011;6499;66.348;14.134;2023-02-25T15:23:21;1.63;;;0.60;;
12861;SDS011;6499;66.348;14.134;2023-02-25T15:26:18;1.37;;;0.97;;
12861;SDS011;6499;66.348;14.134;2023-02-25T15:28:46;2.83;;;0.80;;
12861;SDS011;6499;66.348;14.134;2023-02-25T15:36:44;2.20;;;1.03;;
12861;SDS011;6499;66.348;14.134;2023-02-25T15:39:20;3.87;;;1.00;;
12861;SDS011;6499;66.348;14.134;2023-02-25T15:42:07;1.83;;;0.93;;
12861;SDS011;6499;66.348;14.134;2023-02-25T15:44:35;2.70;;;1.50;;
12861;SDS011;6499;66.348;14.134;2023-02-25T15:47:09;1.53;;;1.20;;
12861;SDS011;6499;66.348;14.134;2023-02-25T15:49:36;4.23;;;1.00;;
12861;SDS011;6499;66.348;14.134;2023-02-25T15:52:05;2.07;;;1.20;;
12861;SDS011;6499;66.348;14.134;2023-02-25T15:54:44;1.83;;;1.40;;